createdAt,value
2019-05-07T00:00:43.576Z,18.80
2019-05-07T00:01:42.334Z,15.70
2019-05-07T00:02:42.711Z,19.80
2019-05-07T00:03:42.177Z,21.10
2019-05-07T00:04:42.645Z,16.50
2019-05-07T00:05:42.603Z,19.30
2019-05-07T00:06:40.681Z,20.90
2019-05-07T00:07:42.518Z,19.80
2019-05-07T00:08:44.659Z,18.40
2019-05-07T00:09:42.930Z,17.70
2019-05-07T00:19:55.785Z,22.00
2019-05-07T00:20:56.014Z,18.60
2019-05-07T00:21:55.353Z,18.60
2019-05-07T00:22:55.331Z,18.30
2019-05-07T00:23:56.668Z,20.70
2019-05-07T00:24:55.368Z,17.40
2019-05-07T00:25:55.300Z,18.70
2019-05-07T00:26:55.299Z,19.80
2019-05-07T00:27:55.271Z,21.60
2019-05-07T00:28:55.353Z,18.90
2019-05-07T00:29:57.201Z,21.20
2019-05-07T00:30:55.425Z,18.70
2019-05-07T00:31:55.399Z,19.30
2019-05-07T00:32:55.338Z,18.10
2019-05-07T00:33:55.427Z,19.90
2019-05-07T00:34:55.457Z,18.70
2019-05-07T00:35:55.431Z,17.70
2019-05-07T00:36:55.473Z,19.40
2019-05-07T00:37:55.461Z,18.40
2019-05-07T00:38:55.325Z,19.90
2019-05-07T00:39:55.530Z,19.30
2019-05-07T00:40:55.003Z,20.90
2019-05-07T00:41:54.852Z,20.30
2019-05-07T00:42:54.900Z,17.90
2019-05-07T00:43:54.855Z,21.40
2019-05-07T00:44:54.853Z,18.50
2019-05-07T00:45:56.857Z,18.00
2019-05-07T00:46:54.895Z,18.80
2019-05-07T00:47:54.882Z,18.80
2019-05-07T00:48:54.907Z,17.90
2019-05-07T00:49:54.925Z,18.70
2019-05-07T00:50:54.925Z,19.30
2019-05-07T00:51:54.981Z,17.90
2019-05-07T00:52:54.950Z,19.90
2019-05-07T00:53:54.989Z,20.30
2019-05-07T00:54:55.049Z,17.10
2019-05-07T00:55:54.988Z,21.10
2019-05-07T00:56:55.043Z,19.90
2019-05-07T00:57:55.059Z,24.60
2019-05-07T00:58:55.023Z,18.70
2019-05-07T00:59:55.040Z,20.50
2019-05-07T01:00:55.109Z,19.20
2019-05-07T01:01:55.122Z,19.30
2019-05-07T01:02:55.086Z,20.80
2019-05-07T01:03:55.138Z,18.20
2019-05-07T01:04:55.144Z,20.10
2019-05-07T01:05:55.123Z,18.10
2019-05-07T01:06:55.157Z,18.30
2019-05-07T01:07:55.149Z,17.90
2019-05-07T01:08:55.201Z,18.00
2019-05-07T01:09:55.167Z,20.60
2019-05-07T01:10:55.247Z,18.60
2019-05-07T01:11:55.230Z,19.90
2019-05-07T01:12:55.207Z,20.10
2019-05-07T01:13:55.295Z,19.10
2019-05-07T01:14:55.259Z,22.40
2019-05-07T01:15:55.244Z,20.30
2019-05-07T01:16:55.255Z,21.00
2019-05-07T01:17:55.277Z,20.50
2019-05-07T01:18:55.363Z,22.10
2019-05-07T01:19:55.296Z,20.60
2019-05-07T01:20:55.383Z,18.60
2019-05-07T01:21:55.340Z,18.50
2019-05-07T01:22:55.339Z,19.60
2019-05-07T01:23:55.420Z,20.90
2019-05-07T01:24:55.362Z,18.70
2019-05-07T01:25:55.395Z,21.60
2019-05-07T01:26:55.390Z,19.90
2019-05-07T01:27:55.471Z,17.30
2019-05-07T01:28:55.441Z,17.70
2019-05-07T01:29:55.425Z,20.60
2019-05-07T01:30:55.465Z,19.20
2019-05-07T01:31:55.536Z,20.40
2019-05-07T01:32:55.469Z,18.00
2019-05-07T01:33:55.475Z,21.00
2019-05-07T01:34:55.526Z,20.40
2019-05-07T01:35:55.578Z,17.80
2019-05-07T01:36:55.563Z,19.70
2019-05-07T01:37:55.532Z,19.00
2019-05-07T01:38:55.546Z,21.00
2019-05-07T01:39:55.552Z,20.30
2019-05-07T01:40:55.573Z,18.10
2019-05-07T01:41:55.586Z,19.40
2019-05-07T01:42:55.623Z,20.30
2019-05-07T01:43:55.609Z,18.70
2019-05-07T01:44:55.637Z,19.60
2019-05-07T01:45:55.637Z,18.30
2019-05-07T01:46:55.650Z,20.00
2019-05-07T01:47:55.745Z,19.00
2019-05-07T01:48:57.541Z,19.70
2019-05-07T01:49:55.718Z,18.20
2019-05-07T01:50:55.758Z,20.50
2019-05-07T01:51:55.750Z,22.40
2019-05-07T01:52:55.724Z,20.80
2019-05-07T01:53:55.817Z,24.10
2019-05-07T01:54:55.815Z,21.60
2019-05-07T01:55:55.777Z,22.50
2019-05-07T01:56:55.780Z,19.80
2019-05-07T01:57:55.879Z,22.40
2019-05-07T01:58:55.894Z,18.20
2019-05-07T01:59:55.887Z,20.30
2019-05-07T02:00:55.857Z,19.40
2019-05-07T02:01:55.871Z,21.10
2019-05-07T02:02:55.857Z,22.10
2019-05-07T02:03:55.883Z,20.80
2019-05-07T02:04:55.883Z,19.90
2019-05-07T02:05:55.929Z,20.30
2019-05-07T02:06:55.915Z,21.90
2019-05-07T02:07:55.926Z,21.50
2019-05-07T02:08:55.937Z,21.60
2019-05-07T02:09:56.024Z,19.30
2019-05-07T02:10:55.975Z,18.90
2019-05-07T02:11:55.978Z,21.70
2019-05-07T02:12:55.981Z,19.50
2019-05-07T02:13:56.050Z,22.10
2019-05-07T02:14:56.007Z,19.30
2019-05-07T02:16:00.854Z,23.30
2019-05-07T02:16:56.103Z,23.00
2019-05-07T02:17:56.096Z,20.70
2019-05-07T02:18:56.061Z,21.10
2019-05-07T02:19:56.078Z,19.80
2019-05-07T02:20:56.183Z,20.90
2019-05-07T02:21:56.111Z,20.40
2019-05-07T02:22:56.226Z,20.10
2019-05-07T02:23:56.168Z,21.00
2019-05-07T02:24:56.196Z,22.10
2019-05-07T02:25:56.153Z,20.00
2019-05-07T02:26:56.265Z,22.70
2019-05-07T02:27:56.195Z,22.70
2019-05-07T02:28:56.948Z,20.60
2019-05-07T02:29:56.207Z,22.40
2019-05-07T02:30:56.218Z,20.70
2019-05-07T02:31:56.288Z,20.70
2019-05-07T02:32:56.260Z,21.10
2019-05-07T02:33:56.325Z,21.10
2019-05-07T02:34:56.266Z,22.60
2019-05-07T02:35:56.280Z,22.10
2019-05-07T02:36:56.296Z,22.50
2019-05-07T02:37:57.016Z,21.20
2019-05-07T02:38:56.410Z,22.90
2019-05-07T02:39:56.339Z,22.00
2019-05-07T02:40:56.351Z,20.60
2019-05-07T02:41:56.420Z,21.50
2019-05-07T02:42:56.444Z,20.30
2019-05-07T02:43:59.944Z,21.20
2019-05-07T02:44:56.424Z,22.90
2019-05-07T02:45:56.410Z,24.30
2019-05-07T02:46:56.447Z,22.90
2019-05-07T02:47:56.447Z,21.70
2019-05-07T02:48:56.447Z,21.90
2019-05-07T02:49:56.517Z,20.00
2019-05-07T02:50:56.536Z,19.50
2019-05-07T02:51:56.490Z,20.50
2019-05-07T02:52:56.528Z,20.70
2019-05-07T02:53:56.511Z,19.50
2019-05-07T02:54:56.525Z,20.60
2019-05-07T02:55:56.619Z,21.60
2019-05-07T02:56:56.618Z,19.10
2019-05-07T02:57:56.563Z,20.50
2019-05-07T04:04:38.837Z,17.60
2019-05-07T04:05:38.805Z,21.60
2019-05-07T04:06:38.789Z,22.80
2019-05-07T04:07:38.894Z,24.90
2019-05-07T04:08:38.845Z,24.70
2019-05-07T04:09:38.926Z,27.60
2019-05-07T04:10:38.922Z,28.90
2019-05-07T04:11:38.961Z,29.10
2019-05-07T04:12:39.491Z,26.90
2019-05-07T04:13:38.945Z,27.40
2019-05-07T04:14:39.350Z,28.00
2019-05-07T04:15:39.083Z,27.50
2019-05-07T04:16:38.954Z,31.10
2019-05-07T04:17:42.509Z,30.50
2019-05-07T04:18:39.742Z,25.60
2019-05-07T04:19:38.985Z,29.00
2019-05-07T04:20:39.143Z,26.40
2019-05-07T04:21:39.034Z,25.80
2019-05-07T04:22:38.932Z,23.60
2019-05-07T04:23:39.474Z,23.10
2019-05-07T04:24:42.793Z,22.60
2019-05-07T04:25:39.059Z,23.00
2019-05-07T04:26:39.105Z,25.30
2019-05-07T04:27:43.376Z,22.90
2019-05-07T04:28:39.077Z,22.80
2019-05-07T04:29:38.821Z,22.10
2019-05-07T04:30:38.543Z,23.80
2019-05-07T04:31:38.589Z,21.40
2019-05-07T04:32:38.600Z,22.40
2019-05-07T04:33:38.632Z,24.40
2019-05-07T04:34:38.562Z,22.30
2019-05-07T04:35:38.763Z,26.00
2019-05-07T04:36:38.715Z,25.20
2019-05-07T04:37:38.811Z,22.80
2019-05-07T04:38:38.830Z,24.90
2019-05-07T04:39:38.612Z,25.40
2019-05-07T04:40:38.660Z,24.90
2019-05-07T04:41:38.744Z,23.90
2019-05-07T04:42:38.740Z,25.30
2019-05-07T04:43:38.858Z,22.80
2019-05-07T04:44:38.973Z,21.80
2019-05-07T04:45:38.790Z,24.30
2019-05-07T04:46:38.709Z,22.00
2019-05-07T04:47:46.330Z,21.60
2019-05-07T04:48:38.675Z,21.30
2019-05-07T04:49:38.878Z,23.40
2019-05-07T04:50:43.413Z,22.50
2019-05-07T04:51:38.863Z,25.40
2019-05-07T04:52:38.966Z,23.70
2019-05-07T04:53:38.826Z,23.10
2019-05-07T04:54:38.717Z,22.70
2019-05-07T04:55:38.912Z,21.20
2019-05-07T04:56:39.166Z,23.80
2019-05-07T04:57:38.916Z,23.50
2019-05-07T04:58:39.389Z,22.90
2019-05-07T04:59:42.547Z,23.40
2019-05-07T05:00:39.396Z,24.80
2019-05-07T05:01:39.360Z,26.90
2019-05-07T05:02:39.313Z,26.50
2019-05-07T05:03:39.461Z,24.90
2019-05-07T05:04:39.473Z,22.60
2019-05-07T05:05:39.229Z,24.20
2019-05-07T05:06:39.264Z,22.70
2019-05-07T05:07:39.306Z,24.60
2019-05-07T05:08:39.619Z,24.80
2019-05-07T05:09:39.103Z,24.60
2019-05-07T05:10:39.140Z,24.30
2019-05-07T05:11:39.513Z,24.30
2019-05-07T05:12:42.844Z,20.60
2019-05-07T05:13:39.405Z,23.00
2019-05-07T05:14:39.384Z,24.00
2019-05-07T05:15:39.632Z,22.80
2019-05-07T05:16:42.397Z,23.70
2019-05-07T05:17:48.132Z,24.00
2019-05-07T05:18:46.649Z,23.90
2019-05-07T05:19:43.724Z,23.40
2019-05-07T05:20:44.869Z,25.10
2019-05-07T05:21:52.698Z,24.90
2019-05-07T05:22:39.108Z,25.30
2019-05-07T05:23:39.290Z,25.60
2019-05-07T05:24:39.300Z,23.10
2019-05-07T05:25:39.194Z,25.70
2019-05-07T05:26:39.214Z,28.20
2019-05-07T05:27:39.226Z,27.60
2019-05-07T05:28:39.305Z,28.60
2019-05-07T05:29:39.212Z,26.30
2019-05-07T05:30:39.342Z,26.70
2019-05-07T05:31:39.268Z,26.20
2019-05-07T05:32:39.293Z,23.90
2019-05-07T05:33:39.320Z,25.70
2019-05-07T05:34:39.286Z,26.60
2019-05-07T05:35:39.364Z,28.80
2019-05-07T05:36:39.323Z,28.80
2019-05-07T05:37:39.282Z,30.20
2019-05-07T05:38:39.429Z,27.70
2019-05-07T05:39:39.442Z,26.10
2019-05-07T05:40:39.465Z,28.00
2019-05-07T05:41:39.430Z,28.10
2019-05-07T05:42:39.483Z,27.10
2019-05-07T05:43:39.571Z,28.90
2019-05-07T05:44:41.631Z,29.80
2019-05-07T05:45:39.552Z,28.30
2019-05-07T05:46:39.572Z,28.30
2019-05-07T05:47:42.834Z,31.80
2019-05-07T05:48:39.528Z,29.10
2019-05-07T05:49:39.524Z,29.50
2019-05-07T05:50:39.612Z,29.70
2019-05-07T05:51:39.723Z,29.20
2019-05-07T05:52:39.502Z,32.20
2019-05-07T05:53:39.502Z,30.20
2019-05-07T05:54:39.621Z,29.00
2019-05-07T05:55:39.533Z,29.00
2019-05-07T05:56:39.642Z,30.60
2019-05-07T05:57:39.663Z,27.70
2019-05-07T05:58:39.635Z,28.40
2019-05-07T05:59:49.189Z,32.30
2019-05-07T06:00:39.616Z,28.30
2019-05-07T06:01:39.646Z,28.50
2019-05-07T06:02:39.727Z,28.40
2019-05-07T06:03:39.718Z,28.70
2019-05-07T06:04:41.935Z,32.30
2019-05-07T06:05:41.558Z,30.70
2019-05-07T06:06:42.128Z,30.70
2019-05-07T06:07:51.978Z,30.50
2019-05-07T06:09:46.483Z,31.60
2019-05-07T06:10:46.449Z,27.70
2019-05-07T06:11:46.437Z,28.90
2019-05-07T06:12:46.477Z,31.80
2019-05-07T06:13:46.370Z,28.30
2019-05-07T06:14:46.405Z,27.10
